createdAt,value
2019-03-30T00:00:01.177Z,100881.61
2019-03-30T00:02:30.303Z,100877.01
2019-03-30T00:04:59.189Z,100876.14
2019-03-30T00:07:29.120Z,100878.26
2019-03-30T00:09:58.010Z,100868.38
2019-03-30T00:12:26.888Z,100880.50
2019-03-30T00:14:56.052Z,100876.72
2019-03-30T00:17:26.478Z,100874.38
2019-03-30T00:19:55.339Z,100868.97
2019-03-30T00:22:25.304Z,100874.49
2019-03-30T00:24:54.211Z,100870.23
2019-03-30T00:27:23.090Z,100874.47
2019-03-30T00:29:51.955Z,100872.47
2019-03-30T00:32:21.254Z,100872.78
2019-03-30T00:34:50.128Z,100871.47
2019-03-30T00:37:19.399Z,100872.23
2019-03-30T00:39:48.312Z,100868.13
2019-03-30T00:42:17.189Z,100872.38
2019-03-30T00:44:46.051Z,100875.94
2019-03-30T00:47:15.228Z,100866.75
2019-03-30T00:49:49.620Z,100872.94
2019-03-30T00:52:15.833Z,100872.72
2019-03-30T00:54:44.999Z,100877.45
2019-03-30T00:57:13.873Z,100873.80
2019-03-30T00:59:43.138Z,100877.89
2019-03-30T01:02:11.996Z,100876.39
2019-03-30T01:04:40.890Z,100877.37
2019-03-30T01:07:09.760Z,100880.61
2019-03-30T01:09:38.623Z,100883.53
2019-03-30T01:12:07.468Z,100882.66
2019-03-30T01:14:36.356Z,100878.54
2019-03-30T01:17:05.262Z,100875.86
2019-03-30T01:19:34.579Z,100876.66
2019-03-30T01:22:03.392Z,100880.04
2019-03-30T01:24:32.267Z,100875.87
2019-03-30T01:27:01.099Z,100878.97
2019-03-30T01:29:29.987Z,100880.13
2019-03-30T01:31:58.809Z,100878.33
2019-03-30T01:34:27.703Z,100878.00
2019-03-30T01:36:57.726Z,100885.67
2019-03-30T01:39:27.957Z,100884.52
2019-03-30T01:41:56.780Z,100887.07
2019-03-30T01:44:25.696Z,100884.75
2019-03-30T01:46:54.540Z,100882.07
2019-03-30T01:49:23.421Z,100884.35
2019-03-30T01:51:52.270Z,100883.80
2019-03-30T01:54:21.156Z,100886.57
2019-03-30T01:56:49.993Z,100889.34
2019-03-30T01:59:18.841Z,100890.25
2019-03-30T02:01:48.053Z,100893.09
2019-03-30T02:04:17.037Z,100892.84
2019-03-30T02:06:45.878Z,100886.19
2019-03-30T02:09:14.748Z,100885.64
2019-03-30T02:11:43.585Z,100885.78
2019-03-30T02:14:12.435Z,100892.47
2019-03-30T02:16:41.587Z,100889.11
2019-03-30T02:19:10.710Z,100890.23
2019-03-30T02:21:39.617Z,100893.11
2019-03-30T02:24:08.491Z,100891.95
2019-03-30T02:26:37.352Z,100887.83
2019-03-30T02:29:06.205Z,100882.38
2019-03-30T02:31:53.270Z,100886.11
2019-03-30T02:34:22.098Z,100889.96
2019-03-30T02:36:50.939Z,100891.56
2019-03-30T02:39:19.815Z,100894.59
2019-03-30T02:41:48.733Z,100891.44
2019-03-30T02:44:17.598Z,100886.81
2019-03-30T02:46:46.722Z,100885.16
2019-03-30T02:49:15.621Z,100887.15
2019-03-30T02:51:44.493Z,100884.00
2019-03-30T02:54:14.355Z,100885.57
2019-03-30T02:56:43.455Z,100874.77
2019-03-30T02:59:12.311Z,100873.80
2019-03-30T03:01:41.516Z,100876.08
2019-03-30T03:04:10.768Z,100875.06
2019-03-30T03:06:40.056Z,100876.63
2019-03-30T03:09:09.013Z,100874.31
2019-03-30T03:11:37.888Z,100874.94
2019-03-30T03:14:06.707Z,100873.38
2019-03-30T03:16:35.601Z,100872.36
2019-03-30T03:19:04.383Z,100864.66
2019-03-30T03:21:33.244Z,100864.77
2019-03-30T03:24:02.061Z,100864.09
2019-03-30T03:26:31.015Z,100862.79
2019-03-30T03:29:00.436Z,100869.33
2019-03-30T03:31:29.222Z,100857.85
2019-03-30T03:33:58.064Z,100855.35
2019-03-30T03:36:27.232Z,100863.34
2019-03-30T03:38:57.470Z,100850.81
2019-03-30T03:41:26.674Z,100853.91
2019-03-30T03:43:55.867Z,100859.81
2019-03-30T03:46:25.253Z,100849.99
2019-03-30T03:48:54.110Z,100852.19
2019-03-30T03:51:26.124Z,100857.55
2019-03-30T03:53:55.179Z,100856.88
2019-03-30T03:56:28.150Z,100848.36
2019-03-30T03:59:00.675Z,100853.84
2019-03-30T04:01:34.064Z,100856.39
2019-03-30T04:04:06.872Z,100854.37
2019-03-30T04:06:40.085Z,100855.40
2019-03-30T04:09:09.177Z,100861.11
2019-03-30T04:11:41.945Z,100860.23
2019-03-30T04:14:15.374Z,100848.92
2019-03-30T04:16:44.277Z,100861.16
2019-03-30T04:19:13.101Z,100850.43
2019-03-30T04:21:44.194Z,100859.56
2019-03-30T04:24:12.764Z,100858.20
2019-03-30T04:26:41.635Z,100862.38
2019-03-30T04:29:10.483Z,100856.47
2019-03-30T04:31:39.731Z,100854.00
2019-03-30T04:36:36.896Z,100855.16
2019-03-30T04:39:06.081Z,100854.39
2019-03-30T04:41:34.954Z,100852.40
2019-03-30T04:44:03.809Z,100852.54
2019-03-30T04:46:32.797Z,100846.74
2019-03-30T04:49:01.901Z,100848.81
2019-03-30T04:51:30.780Z,100851.19
2019-03-30T04:53:59.578Z,100856.55
2019-03-30T04:56:28.451Z,100850.98
2019-03-30T04:58:58.531Z,100847.89
2019-03-30T05:01:28.385Z,100849.83
2019-03-30T05:03:57.238Z,100844.84
2019-03-30T05:06:26.133Z,100850.41
2019-03-30T05:08:54.981Z,100849.73
2019-03-30T05:11:23.885Z,100852.34
2019-03-30T05:13:52.731Z,100852.96
2019-03-30T05:16:21.592Z,100855.91
2019-03-30T05:18:50.469Z,100857.84
2019-03-30T05:21:19.607Z,100855.23
2019-03-30T05:23:48.444Z,100858.28
2019-03-30T05:26:17.329Z,100858.77
2019-03-30T05:28:46.208Z,100858.28
2019-03-30T05:31:16.152Z,100867.91
2019-03-30T05:33:44.991Z,100867.22
2019-03-30T05:36:14.174Z,100867.36
2019-03-30T05:38:43.315Z,100870.79
2019-03-30T05:41:12.160Z,100869.83
2019-03-30T05:43:40.983Z,100873.88
2019-03-30T05:46:10.223Z,100875.80
2019-03-30T05:48:39.082Z,100880.30
2019-03-30T05:51:07.993Z,100882.44
2019-03-30T05:53:36.818Z,100885.66
2019-03-30T05:56:05.712Z,100877.48
2019-03-30T05:58:34.517Z,100876.33
2019-03-30T06:01:03.998Z,100882.70
2019-03-30T06:03:32.815Z,100877.48
2019-03-30T06:06:01.701Z,100878.80
2019-03-30T06:08:30.538Z,100890.41
2019-03-30T06:11:01.619Z,100884.70
2019-03-30T06:13:30.425Z,100881.47
2019-03-30T06:15:59.293Z,100882.19
2019-03-30T06:18:28.507Z,100884.87
2019-03-30T06:20:57.397Z,100871.44
2019-03-30T06:23:27.574Z,100881.83
2019-03-30T06:25:56.471Z,100878.69
2019-03-30T06:28:25.365Z,100878.51
2019-03-30T06:30:54.177Z,100875.37
2019-03-30T06:33:23.031Z,100877.45
2019-03-30T06:35:51.880Z,100873.94
2019-03-30T06:38:21.102Z,100872.44
2019-03-30T06:40:49.998Z,100877.74
2019-03-30T06:43:18.887Z,100875.08
2019-03-30T06:45:48.400Z,100874.39
2019-03-30T06:48:18.817Z,100878.12
2019-03-30T06:50:47.691Z,100878.40
2019-03-30T06:53:16.814Z,100876.74
2019-03-30T06:55:45.929Z,100880.54
2019-03-30T06:58:14.761Z,100875.33
2019-03-30T07:00:45.035Z,100877.66
2019-03-30T07:03:14.438Z,100875.73
2019-03-30T07:05:43.762Z,100876.44
2019-03-30T07:08:16.370Z,100872.28
2019-03-30T07:10:46.919Z,100873.20
2019-03-30T07:13:16.113Z,100876.08
2019-03-30T07:15:49.854Z,100875.84
2019-03-30T07:18:19.660Z,100882.15
2019-03-30T07:20:48.444Z,100884.58
2019-03-30T07:23:17.275Z,100874.16
2019-03-30T07:25:46.091Z,100877.45
2019-03-30T07:28:25.684Z,100877.15
2019-03-30T07:30:54.885Z,100875.18
2019-03-30T07:33:24.863Z,100869.46
2019-03-30T07:35:53.917Z,100863.63
2019-03-30T07:38:22.754Z,100865.66
2019-03-30T07:40:51.531Z,100859.95
2019-03-30T07:43:20.386Z,100857.63
2019-03-30T07:45:49.185Z,100857.48
2019-03-30T07:48:18.023Z,100859.85
2019-03-30T07:50:46.964Z,100851.33
2019-03-30T07:53:26.424Z,100855.16
2019-03-30T07:55:46.957Z,100842.02
2019-03-30T07:58:15.827Z,100850.59
2019-03-30T08:00:44.652Z,100849.37
2019-03-30T08:03:13.520Z,100848.97
2019-03-30T08:05:43.059Z,100845.73
2019-03-30T08:08:13.308Z,100840.87
2019-03-30T08:10:42.784Z,100840.86
2019-03-30T08:13:11.635Z,100845.59
2019-03-30T08:15:40.469Z,100840.20
2019-03-30T08:18:09.385Z,100834.75
2019-03-30T08:20:38.628Z,100842.53
2019-03-30T08:23:07.496Z,100831.50
2019-03-30T08:25:36.333Z,100834.93
2019-03-30T08:28:05.226Z,100836.14
2019-03-30T08:30:34.831Z,100825.09
2019-03-30T08:33:03.756Z,100822.31
2019-03-30T08:35:32.642Z,100812.23
2019-03-30T08:38:01.556Z,100818.45
2019-03-30T08:40:30.412Z,100815.28
2019-03-30T08:42:59.261Z,100816.00
2019-03-30T08:45:29.631Z,100813.32
2019-03-30T08:47:59.499Z,100812.23
2019-03-30T08:50:28.532Z,100813.58
2019-03-30T08:52:57.475Z,100809.75
2019-03-30T08:55:26.332Z,100809.84
2019-03-30T08:57:55.255Z,100803.92
2019-03-30T09:00:49.496Z,100802.65
2019-03-30T09:03:18.459Z,100794.16
2019-03-30T09:05:47.256Z,100799.16
2019-03-30T09:08:16.098Z,100788.39
2019-03-30T09:10:44.981Z,100789.73
2019-03-30T09:13:13.920Z,100786.03
2019-03-30T09:15:42.734Z,100784.68
2019-03-30T09:18:11.603Z,100780.55
2019-03-30T09:20:40.405Z,100780.00
2019-03-30T09:23:09.247Z,100776.77
2019-03-30T09:25:38.511Z,100771.02
2019-03-30T09:28:07.406Z,100772.20
2019-03-30T09:30:36.484Z,100765.81
2019-03-30T09:33:05.862Z,100766.61
2019-03-30T09:35:34.795Z,100760.61
2019-03-30T09:38:03.809Z,100766.13
2019-03-30T09:40:33.359Z,100758.00
2019-03-30T09:43:03.371Z,100755.19
2019-03-30T09:45:32.204Z,100756.89
2019-03-30T09:48:00.998Z,100749.95
2019-03-30T09:50:29.846Z,100742.36
2019-03-30T09:52:58.673Z,100744.77
2019-03-30T09:55:27.711Z,100740.88
2019-03-30T09:57:56.983Z,100741.84
2019-03-30T10:00:26.312Z,100736.31
2019-03-30T10:02:55.205Z,100743.14
2019-03-30T10:05:24.023Z,100744.09
2019-03-30T10:07:54.024Z,100737.92
2019-03-30T10:10:22.900Z,100730.84
2019-03-30T10:12:51.747Z,100726.55
2019-03-30T10:15:20.799Z,100729.53
2019-03-30T10:17:49.720Z,100729.20
2019-03-30T10:20:18.689Z,100723.42
2019-03-30T10:22:47.703Z,100722.56
2019-03-30T10:25:16.721Z,100715.22
2019-03-30T10:27:46.861Z,100715.53
2019-03-30T10:30:15.930Z,100711.45
2019-03-30T10:32:45.184Z,100707.59
2019-03-30T10:35:14.022Z,100705.06
2019-03-30T10:37:43.169Z,100700.84
2019-03-30T10:40:12.275Z,100700.48
2019-03-30T10:42:41.116Z,100694.10
2019-03-30T10:45:10.267Z,100686.90
2019-03-30T10:47:39.117Z,100689.13
2019-03-30T10:50:09.047Z,100684.52
2019-03-30T10:52:43.361Z,100678.41
2019-03-30T10:55:12.224Z,100681.41
2019-03-30T10:57:42.228Z,100673.97
2019-03-30T11:00:17.025Z,100668.41
2019-03-30T11:02:46.791Z,100674.11
2019-03-30T11:05:15.807Z,100669.11
2019-03-30T11:07:44.684Z,100661.41
2019-03-30T11:10:13.544Z,100659.87
2019-03-30T11:12:42.574Z,100651.88
2019-03-30T11:15:11.445Z,100655.94
2019-03-30T11:17:40.340Z,100647.22
2019-03-30T11:20:09.288Z,100644.67
2019-03-30T11:22:38.496Z,100645.20
2019-03-30T11:25:08.998Z,100638.31
2019-03-30T11:27:38.278Z,100634.00
2019-03-30T11:30:07.358Z,100626.66
2019-03-30T11:32:36.238Z,100632.28
2019-03-30T11:35:06.039Z,100624.73
2019-03-30T11:37:34.909Z,100617.78
2019-03-30T11:40:04.395Z,100617.58
2019-03-30T11:42:33.347Z,100613.78
2019-03-30T11:45:03.483Z,100613.46
2019-03-30T11:47:32.748Z,100604.58
2019-03-30T11:50:01.710Z,100606.39
2019-03-30T11:52:30.647Z,100596.52
2019-03-30T11:54:59.525Z,100585.85
2019-03-30T11:57:28.549Z,100588.19
2019-03-30T11:59:57.558Z,100586.45
2019-03-30T12:02:28.101Z,100586.83
2019-03-30T12:04:59.651Z,100584.90
2019-03-30T12:07:29.049Z,100582.35
2019-03-30T12:09:59.835Z,100580.61
2019-03-30T12:12:28.728Z,100580.72
2019-03-30T12:14:57.575Z,100574.34
2019-03-30T12:17:26.431Z,100562.55
2019-03-30T12:19:55.318Z,100566.27
2019-03-30T12:22:24.186Z,100553.20
2019-03-30T12:24:53.029Z,100550.27
2019-03-30T12:27:22.260Z,100554.28
2019-03-30T12:29:51.331Z,100548.25
2019-03-30T12:32:20.204Z,100546.45
2019-03-30T12:34:50.532Z,100544.23
2019-03-30T12:37:19.548Z,100540.48
2019-03-30T12:39:48.594Z,100533.94
2019-03-30T12:42:17.440Z,100539.20
2019-03-30T12:44:46.411Z,100529.69
2019-03-30T12:47:15.268Z,100528.73
2019-03-30T12:49:45.365Z,100515.86
2019-03-30T12:52:14.497Z,100520.34
2019-03-30T12:54:43.386Z,100511.41
2019-03-30T12:57:12.216Z,100513.91
2019-03-30T12:59:41.296Z,100506.28
2019-03-30T13:02:11.581Z,100504.36
2019-03-30T13:04:40.487Z,100496.81
2019-03-30T13:07:09.645Z,100494.87
2019-03-30T13:09:38.498Z,100496.38
2019-03-30T13:12:07.346Z,100497.42
2019-03-30T13:14:36.248Z,100493.09
2019-03-30T13:17:07.547Z,100486.59
2019-03-30T13:19:36.434Z,100482.50
2019-03-30T13:22:05.259Z,100485.10
2019-03-30T13:24:34.328Z,100472.66
2019-03-30T13:27:04.618Z,100474.37
2019-03-30T13:29:33.890Z,100469.12
2019-03-30T13:32:02.737Z,100470.40
2019-03-30T13:34:31.658Z,100461.72
2019-03-30T13:37:14.002Z,100460.91
2019-03-30T13:39:43.142Z,100456.30
2019-03-30T13:42:14.001Z,100463.25
2019-03-30T13:44:42.919Z,100458.79
2019-03-30T13:47:12.241Z,100448.86
2019-03-30T13:49:41.273Z,100450.00
2019-03-30T13:52:10.271Z,100444.74
2019-03-30T13:54:39.322Z,100440.52
2019-03-30T13:57:08.244Z,100431.53
2019-03-30T13:59:37.644Z,100435.75
2019-03-30T14:02:07.068Z,100428.59
2019-03-30T14:04:35.944Z,100429.39
2019-03-30T14:07:06.278Z,100422.25
2019-03-30T14:09:35.202Z,100426.22
2019-03-30T14:12:05.640Z,100421.98
2019-03-30T14:14:35.225Z,100419.05
2019-03-30T14:17:05.579Z,100423.87
2019-03-30T14:19:34.717Z,100421.98
2019-03-30T14:22:03.715Z,100415.83
2019-03-30T14:24:32.658Z,100415.50
2019-03-30T14:27:01.520Z,100411.57
2019-03-30T14:29:30.385Z,100407.55
2019-03-30T14:31:59.286Z,100401.58
2019-03-30T14:34:28.207Z,100395.61
2019-03-30T14:36:57.037Z,100396.08
2019-03-30T14:39:26.162Z,100390.02
2019-03-30T14:41:54.998Z,100387.20
2019-03-30T14:44:25.179Z,100387.05
2019-03-30T14:46:54.029Z,100384.64
2019-03-30T14:49:22.940Z,100386.73
2019-03-30T14:51:52.480Z,100381.08
2019-03-30T14:54:21.849Z,100383.45
2019-03-30T14:56:50.715Z,100376.75
2019-03-30T14:59:19.681Z,100377.80
2019-03-30T15:01:49.323Z,100373.81
2019-03-30T15:04:19.484Z,100371.86
2019-03-30T15:06:48.392Z,100366.59
2019-03-30T15:09:17.314Z,100373.28
2019-03-30T15:11:46.403Z,100368.91
2019-03-30T15:14:15.386Z,100367.97
2019-03-30T15:16:44.263Z,100366.75
2019-03-30T15:19:13.099Z,100363.94
2019-03-30T15:21:42.159Z,100362.59
2019-03-30T15:24:11.146Z,100365.70
2019-03-30T15:26:40.471Z,100355.61
2019-03-30T15:29:10.748Z,100355.48
2019-03-30T15:31:43.849Z,100347.55
2019-03-30T15:34:16.034Z,100347.11
2019-03-30T15:36:44.929Z,100346.44
2019-03-30T15:39:13.784Z,100347.10
2019-03-30T15:41:43.000Z,100343.17
2019-03-30T15:44:11.816Z,100339.48
2019-03-30T15:46:40.702Z,100339.86
2019-03-30T15:49:09.891Z,100336.19
2019-03-30T15:51:38.871Z,100331.38
2019-03-30T15:54:07.697Z,100335.74
2019-03-30T15:56:36.601Z,100330.91
2019-03-30T15:59:06.439Z,100332.54
2019-03-30T16:01:35.339Z,100330.94
2019-03-30T16:04:04.183Z,100326.34
2019-03-30T16:06:33.462Z,100332.75
2019-03-30T16:09:05.528Z,100330.31
2019-03-30T16:11:34.506Z,100324.89
2019-03-30T16:14:03.438Z,100324.31
2019-03-30T16:16:32.556Z,100323.96
2019-03-30T16:19:01.433Z,100326.89
2019-03-30T16:21:30.391Z,100324.95
2019-03-30T16:23:59.215Z,100327.83
2019-03-30T16:26:41.327Z,100321.32
2019-03-30T16:29:00.624Z,100324.23
2019-03-30T16:31:29.494Z,100323.84
2019-03-30T16:33:58.321Z,100320.53
2019-03-30T16:36:27.556Z,100318.06
2019-03-30T16:38:56.477Z,100315.02
2019-03-30T16:41:25.347Z,100318.94
2019-03-30T16:43:54.268Z,100310.83
2019-03-30T16:46:23.239Z,100312.02
2019-03-30T16:48:52.052Z,100310.09
2019-03-30T16:51:20.970Z,100310.06
2019-03-30T16:53:49.905Z,100308.94
2019-03-30T16:56:18.790Z,100306.20
2019-03-30T16:58:47.640Z,100304.25
2019-03-30T17:01:16.540Z,100307.12
2019-03-30T17:03:45.470Z,100304.92
2019-03-30T17:06:14.479Z,100302.75
2019-03-30T17:08:43.324Z,100302.13
2019-03-30T17:11:12.524Z,100300.45
2019-03-30T17:13:41.364Z,100301.91
2019-03-30T17:16:10.340Z,100304.21
2019-03-30T17:18:39.217Z,100297.96
2019-03-30T17:21:09.383Z,100300.77
2019-03-30T17:23:38.272Z,100301.20
2019-03-30T17:26:07.124Z,100305.65
2019-03-30T17:28:36.419Z,100304.69
2019-03-30T17:31:07.934Z,100308.31
2019-03-30T17:33:36.814Z,100300.66
2019-03-30T17:36:05.734Z,100305.03
2019-03-30T17:38:34.600Z,100300.84
2019-03-30T17:41:03.510Z,100299.33
2019-03-30T17:43:32.826Z,100304.48
2019-03-30T17:46:01.660Z,100303.80
2019-03-30T17:48:30.556Z,100301.16
2019-03-30T17:51:09.525Z,100295.63
2019-03-30T17:53:47.499Z,100303.46
2019-03-30T17:56:17.248Z,100301.64
2019-03-30T17:58:46.149Z,100307.61
2019-03-30T18:01:15.895Z,100306.38
2019-03-30T18:03:44.935Z,100307.77
2019-03-30T18:06:13.788Z,100305.20
2019-03-30T18:08:42.646Z,100311.08
2019-03-30T18:11:11.483Z,100312.22
2019-03-30T18:13:40.497Z,100314.64
2019-03-30T18:16:09.330Z,100317.10
2019-03-30T18:18:38.234Z,100316.58
2019-03-30T18:21:08.272Z,100321.40
2019-03-30T18:23:37.205Z,100319.00
2019-03-30T18:26:06.054Z,100321.09
2019-03-30T18:28:35.100Z,100319.44
2019-03-30T18:31:03.949Z,100322.39
2019-03-30T18:33:33.258Z,100325.82
2019-03-30T18:36:03.020Z,100330.61
2019-03-30T18:38:36.666Z,100337.45
2019-03-30T18:41:06.902Z,100334.87
2019-03-30T18:43:36.699Z,100346.39
2019-03-30T18:46:05.556Z,100348.01
2019-03-30T18:48:34.645Z,100348.98
2019-03-30T18:51:03.753Z,100349.77
2019-03-30T18:53:32.674Z,100353.98
2019-03-30T18:56:01.508Z,100359.50
2019-03-30T18:58:41.061Z,100356.63
2019-03-30T19:01:01.527Z,100364.19
2019-03-30T19:03:30.512Z,100364.59
2019-03-30T19:05:59.710Z,100371.20
2019-03-30T19:08:29.109Z,100365.64
2019-03-30T19:10:57.960Z,100366.61
2019-03-30T19:13:26.896Z,100368.83
2019-03-30T19:15:55.761Z,100375.86
2019-03-30T19:18:24.749Z,100379.36
2019-03-30T19:20:54.081Z,100381.77
2019-03-30T19:23:22.975Z,100376.22
2019-03-30T19:25:53.096Z,100377.07
2019-03-30T19:28:22.945Z,100376.37
2019-03-30T19:30:51.900Z,100381.19
2019-03-30T19:33:20.866Z,100387.53
2019-03-30T19:35:50.171Z,100393.02
2019-03-30T19:38:19.417Z,100392.72
2019-03-30T19:40:48.475Z,100394.05
2019-03-30T19:43:18.458Z,100395.75
2019-03-30T19:45:47.980Z,100392.19
2019-03-30T19:48:17.197Z,100395.92
2019-03-30T19:50:46.499Z,100393.67
2019-03-30T19:53:16.748Z,100393.73
2019-03-30T19:55:45.766Z,100393.80
2019-03-30T19:58:14.862Z,100396.28
2019-03-30T20:00:43.756Z,100395.45
2019-03-30T20:03:12.636Z,100396.44
2019-03-30T20:05:44.481Z,100393.25
2019-03-30T20:08:12.867Z,100395.36
2019-03-30T20:10:41.898Z,100395.63
2019-03-30T20:13:11.303Z,100395.94
2019-03-30T20:15:40.431Z,100390.41
2019-03-30T20:18:09.365Z,100397.28
2019-03-30T20:20:38.353Z,100395.72
2019-03-30T20:23:08.874Z,100394.36
2019-03-30T20:25:37.749Z,100395.64
2019-03-30T20:28:06.618Z,100395.43
2019-03-30T20:30:35.514Z,100394.23
2019-03-30T20:33:04.364Z,100400.34
2019-03-30T20:35:33.332Z,100402.82
2019-03-30T20:38:02.206Z,100401.30
2019-03-30T20:40:31.088Z,100399.00
2019-03-30T20:42:59.916Z,100400.52
2019-03-30T20:45:29.185Z,100405.11
2019-03-30T20:47:58.114Z,100401.76
2019-03-30T20:50:27.000Z,100404.72
2019-03-30T20:52:55.960Z,100409.42
2019-03-30T20:55:24.852Z,100409.47
2019-03-30T20:57:54.759Z,100405.63
2019-03-30T21:00:23.989Z,100401.44
2019-03-30T21:02:52.894Z,100404.94
2019-03-30T21:05:21.848Z,100397.57
2019-03-30T21:07:50.715Z,100396.52
2019-03-30T21:10:19.617Z,100400.36
2019-03-30T21:12:48.839Z,100398.31
2019-03-30T21:15:17.772Z,100394.92
2019-03-30T21:17:46.777Z,100398.30
2019-03-30T21:20:15.689Z,100395.00
2019-03-30T21:22:44.499Z,100394.06
2019-03-30T21:25:13.405Z,100394.09
2019-03-30T21:27:42.333Z,100392.84
2019-03-30T21:30:12.915Z,100394.39
2019-03-30T21:32:41.940Z,100391.29
2019-03-30T21:35:12.745Z,100390.34
2019-03-30T21:37:41.613Z,100392.36
2019-03-30T21:40:10.807Z,100390.06
2019-03-30T21:42:39.677Z,100393.52
2019-03-30T21:45:10.360Z,100390.77
2019-03-30T21:47:39.533Z,100388.31
2019-03-30T21:50:08.685Z,100388.53
2019-03-30T21:52:37.564Z,100386.94
2019-03-30T21:55:07.215Z,100384.20
2019-03-30T21:57:37.435Z,100390.81
2019-03-30T22:00:10.557Z,100382.98
2019-03-30T22:02:38.199Z,100380.19
2019-03-30T22:05:09.317Z,100381.44
2019-03-30T22:07:38.681Z,100379.52
2019-03-30T22:10:10.287Z,100383.86
2019-03-30T22:12:43.121Z,100384.33
2019-03-30T22:15:20.462Z,100379.56
2019-03-30T22:17:49.634Z,100379.33
2019-03-30T22:20:21.289Z,100381.95
2019-03-30T22:22:49.636Z,100386.77
2019-03-30T22:25:18.538Z,100390.10
2019-03-30T22:27:47.431Z,100387.17
2019-03-30T22:30:24.546Z,100386.06
2019-03-30T22:32:47.153Z,100386.74
2019-03-30T22:35:16.079Z,100383.66
2019-03-30T22:37:46.135Z,100381.88
2019-03-30T22:40:15.009Z,100386.55
2019-03-30T22:42:43.956Z,100387.06
2019-03-30T22:45:13.027Z,100384.13
2019-03-30T22:47:41.925Z,100380.88
2019-03-30T22:50:11.007Z,100384.01
2019-03-30T22:52:40.145Z,100382.87
2019-03-30T22:55:11.769Z,100385.37
2019-03-30T22:57:40.965Z,100381.75
2019-03-30T23:00:20.892Z,100382.11
2019-03-30T23:02:51.971Z,100376.86
2019-03-30T23:05:20.876Z,100373.06
2019-03-30T23:07:49.696Z,100377.55
2019-03-30T23:10:18.769Z,100381.36
2019-03-30T23:12:47.720Z,100382.68
2019-03-30T23:15:16.583Z,100380.09
2019-03-30T23:17:45.821Z,100386.17
2019-03-30T23:20:14.694Z,100383.91
2019-03-30T23:22:43.593Z,100380.92
2019-03-30T23:25:13.598Z,100379.64
2019-03-30T23:27:43.055Z,100380.15
2019-03-30T23:30:12.219Z,100374.25
2019-03-30T23:32:41.289Z,100378.38
2019-03-30T23:35:11.851Z,100377.20
2019-03-30T23:37:41.114Z,100373.30
2019-03-30T23:40:10.277Z,100368.05
2019-03-30T23:42:39.175Z,100367.27
2019-03-30T23:45:08.150Z,100364.94
2019-03-30T23:47:37.185Z,100371.68
2019-03-30T23:50:06.114Z,100365.61
2019-03-30T23:52:35.302Z,100372.20
2019-03-30T23:55:04.291Z,100366.46
2019-03-30T23:57:33.170Z,100364.83
